createdAt,value
2023-01-18T00:01:11.791Z,2.23
2023-01-18T00:03:42.233Z,1.93
2023-01-18T00:06:10.431Z,2.20
2023-01-18T00:08:40.938Z,2.13
2023-01-18T00:11:15.272Z,1.67
2023-01-18T00:13:42.389Z,2.07
2023-01-18T00:16:12.787Z,1.70
2023-01-18T00:18:39.600Z,1.87
2023-01-18T00:21:09.055Z,1.87
2023-01-18T00:23:36.167Z,1.57
2023-01-18T00:26:08.311Z,2.03
2023-01-18T00:28:35.784Z,1.30
2023-01-18T00:31:02.617Z,2.40
2023-01-18T00:33:29.089Z,1.23
2023-01-18T00:36:03.801Z,1.40
2023-01-18T00:38:30.511Z,1.23
2023-01-18T00:40:57.661Z,1.50
2023-01-18T00:43:39.174Z,1.90
2023-01-18T00:46:05.715Z,2.13
2023-01-18T00:48:32.277Z,1.60
2023-01-18T00:50:58.786Z,1.30
2023-01-18T00:53:25.224Z,1.87
2023-01-18T00:55:51.724Z,1.50
2023-01-18T00:58:18.229Z,1.10
2023-01-18T01:00:44.914Z,1.50
2023-01-18T01:03:13.692Z,1.20
2023-01-18T01:08:25.590Z,1.63
2023-01-18T01:10:53.476Z,1.23
2023-01-18T01:13:40.110Z,1.17
2023-01-18T01:16:27.350Z,1.10
2023-01-18T01:19:14.727Z,1.07
2023-01-18T01:22:00.363Z,1.57
2023-01-18T01:24:45.760Z,1.60
2023-01-18T01:27:15.271Z,1.73
2023-01-18T01:29:41.737Z,2.03
2023-01-18T01:32:08.364Z,1.67
2023-01-18T01:34:34.933Z,1.50
2023-01-18T01:37:01.868Z,1.43
2023-01-18T01:39:28.744Z,1.53
2023-01-18T01:41:55.221Z,1.23
2023-01-18T01:44:21.649Z,1.07
2023-01-18T01:46:52.671Z,1.00
2023-01-18T01:49:19.071Z,0.90
2023-01-18T01:51:55.930Z,0.80
2023-01-18T01:54:29.060Z,1.00
2023-01-18T01:57:06.074Z,1.20
2023-01-18T01:59:37.638Z,1.00
2023-01-18T02:02:05.120Z,1.30
2023-01-18T02:04:32.887Z,1.07
2023-01-18T02:06:59.400Z,0.90
2023-01-18T02:09:26.171Z,1.20
2023-01-18T02:11:54.604Z,1.13
2023-01-18T02:14:24.258Z,1.13
2023-01-18T02:16:59.531Z,1.27
2023-01-18T02:19:29.051Z,0.80
2023-01-18T02:22:01.400Z,1.03
2023-01-18T02:24:30.977Z,0.90
2023-01-18T02:27:01.334Z,0.80
2023-01-18T02:29:33.663Z,0.70
2023-01-18T02:32:42.003Z,1.20
2023-01-18T02:35:18.918Z,1.00
2023-01-18T02:38:00.673Z,1.20
2023-01-18T02:40:30.903Z,1.50
2023-01-18T02:43:22.246Z,1.43
2023-01-18T02:46:08.738Z,2.03
2023-01-18T02:48:37.975Z,1.30
2023-01-18T02:51:04.989Z,1.03
2023-01-18T02:53:35.284Z,0.90
2023-01-18T02:56:07.958Z,0.67
2023-01-18T02:59:13.486Z,0.77
2023-01-18T03:01:45.912Z,0.70
2023-01-18T03:04:18.135Z,0.50
2023-01-18T03:06:48.937Z,0.70
2023-01-18T03:09:21.695Z,0.63
2023-01-18T03:12:01.145Z,1.00
2023-01-18T03:15:12.988Z,0.80
2023-01-18T03:17:48.864Z,0.67
2023-01-18T03:20:18.756Z,0.40
2023-01-18T03:23:28.358Z,0.50
2023-01-18T03:25:57.582Z,1.03
2023-01-18T03:28:54.001Z,0.50
2023-01-18T03:31:59.832Z,0.70
2023-01-18T03:34:36.859Z,0.80
2023-01-18T03:37:10.711Z,0.90
2023-01-18T03:39:42.672Z,0.50
2023-01-18T03:42:16.187Z,0.53
2023-01-18T03:44:59.196Z,0.60
2023-01-18T03:47:26.094Z,0.50
2023-01-18T03:49:52.809Z,0.40
2023-01-18T03:52:42.611Z,0.30
2023-01-18T03:55:25.314Z,0.30
2023-01-18T03:58:00.797Z,0.40
2023-01-18T04:00:27.347Z,0.50
2023-01-18T04:02:53.876Z,0.40
2023-01-18T04:05:20.383Z,0.30
2023-01-18T04:07:47.263Z,0.53
2023-01-18T04:10:13.998Z,0.30
2023-01-18T04:12:40.598Z,0.40
2023-01-18T04:15:07.461Z,0.40
2023-01-18T04:17:33.927Z,0.37
2023-01-18T04:20:00.434Z,0.40
2023-01-18T04:22:26.960Z,0.30
2023-01-18T04:24:56.173Z,0.40
2023-01-18T04:27:26.147Z,0.30
2023-01-18T04:29:52.849Z,0.20
2023-01-18T04:32:19.429Z,0.30
2023-01-18T04:34:45.937Z,0.30
2023-01-18T04:37:12.482Z,0.30
2023-01-18T04:39:38.933Z,0.30
2023-01-18T04:42:05.499Z,0.40
2023-01-18T04:44:31.948Z,0.40
2023-01-18T04:46:58.425Z,0.50
2023-01-18T04:49:27.673Z,0.37
2023-01-18T04:51:56.371Z,0.50
2023-01-18T04:54:22.888Z,0.43
2023-01-18T04:56:49.433Z,0.30
2023-01-18T04:59:16.634Z,0.73
2023-01-18T05:01:43.794Z,0.47
2023-01-18T05:04:10.745Z,0.40
2023-01-18T05:06:37.303Z,0.50
2023-01-18T05:09:03.886Z,0.33
2023-01-18T05:11:30.420Z,0.37
2023-01-18T05:13:59.813Z,0.30
2023-01-18T05:16:29.203Z,0.40
2023-01-18T05:18:59.106Z,0.40
2023-01-18T05:21:28.488Z,0.43
2023-01-18T05:23:56.898Z,0.30
2023-01-18T05:26:24.377Z,0.20
2023-01-18T05:28:58.065Z,0.60
2023-01-18T05:31:24.784Z,0.47
2023-01-18T05:33:51.412Z,0.40
2023-01-18T05:36:17.912Z,0.50
2023-01-18T05:38:44.433Z,0.40
2023-01-18T05:41:10.864Z,0.50
2023-01-18T05:43:38.227Z,0.40
2023-01-18T05:46:05.405Z,0.50
2023-01-18T05:48:32.621Z,0.40
2023-01-18T05:50:59.446Z,0.40
2023-01-18T05:53:27.998Z,0.40
2023-01-18T05:56:00.625Z,0.40
2023-01-18T05:58:29.980Z,0.50
2023-01-18T06:00:58.291Z,1.00
2023-01-18T06:03:34.362Z,0.50
2023-01-18T06:06:01.707Z,0.40
2023-01-18T06:08:31.323Z,0.40
2023-01-18T06:10:59.684Z,0.90
2023-01-18T06:13:29.581Z,0.70
2023-01-18T06:16:00.474Z,0.60
2023-01-18T06:18:32.843Z,0.50
2023-01-18T06:21:01.813Z,0.50
2023-01-18T06:23:30.168Z,0.90
2023-01-18T06:25:59.986Z,1.10
2023-01-18T06:28:30.923Z,3.00
2023-01-18T06:31:04.692Z,8.93
2023-01-18T06:33:31.253Z,14.73
2023-01-18T06:36:01.396Z,5.93
2023-01-18T06:38:31.249Z,3.10
2023-01-18T06:41:00.764Z,2.90
2023-01-18T06:43:30.512Z,2.93
2023-01-18T06:45:59.529Z,2.50
2023-01-18T06:48:29.851Z,1.07
2023-01-18T06:51:00.795Z,1.10
2023-01-18T06:53:30.708Z,2.67
2023-01-18T06:56:00.227Z,0.90
2023-01-18T06:58:31.120Z,1.70
2023-01-18T07:01:01.534Z,0.60
2023-01-18T07:03:30.571Z,0.70
2023-01-18T07:06:00.094Z,2.20
2023-01-18T07:08:34.674Z,0.80
2023-01-18T07:11:06.606Z,1.10
2023-01-18T07:13:33.579Z,0.80
2023-01-18T07:16:01.989Z,0.50
2023-01-18T07:18:29.966Z,0.60
2023-01-18T07:21:10.260Z,0.53
2023-01-18T07:23:38.791Z,0.60
2023-01-18T07:26:07.000Z,1.00
2023-01-18T07:28:34.748Z,0.77
2023-01-18T07:31:01.409Z,1.00
2023-01-18T07:33:30.690Z,0.93
2023-01-18T07:36:00.543Z,1.53
2023-01-18T07:38:31.069Z,1.00
2023-01-18T07:41:02.106Z,1.27
2023-01-18T07:43:31.019Z,1.60
2023-01-18T07:45:58.555Z,1.20
2023-01-18T07:48:27.888Z,1.60
2023-01-18T07:50:58.469Z,1.80
2023-01-18T07:53:30.005Z,1.90
2023-01-18T07:56:03.544Z,2.20
2023-01-18T07:58:30.351Z,2.20
2023-01-18T08:01:11.853Z,2.17
2023-01-18T08:03:39.371Z,2.00
2023-01-18T08:06:07.420Z,3.20
2023-01-18T08:08:35.415Z,1.90
2023-01-18T08:11:04.263Z,2.20
2023-01-18T08:13:30.995Z,2.90
2023-01-18T08:16:02.095Z,2.10
2023-01-18T08:18:28.802Z,1.97
2023-01-18T08:20:56.606Z,2.10
2023-01-18T08:23:23.870Z,2.60
2023-01-18T08:25:51.035Z,3.10
2023-01-18T08:28:18.287Z,2.83
2023-01-18T08:30:47.337Z,3.50
2023-01-18T08:33:14.722Z,3.57
2023-01-18T08:35:43.965Z,4.73
2023-01-18T08:38:12.179Z,4.37
2023-01-18T08:40:38.747Z,4.47
2023-01-18T08:43:05.992Z,4.07
2023-01-18T08:45:32.964Z,4.47
2023-01-18T08:48:01.789Z,4.80
2023-01-18T08:50:32.397Z,4.23
2023-01-18T08:53:00.292Z,4.87
2023-01-18T08:55:30.434Z,4.47
2023-01-18T08:57:59.806Z,3.97
2023-01-18T09:00:30.690Z,4.43
2023-01-18T09:03:02.839Z,4.60
2023-01-18T09:05:29.765Z,3.60
2023-01-18T09:08:00.110Z,4.73
2023-01-18T09:10:27.688Z,4.50
2023-01-18T09:12:55.674Z,4.87
2023-01-18T09:15:22.585Z,5.37
2023-01-18T09:17:49.106Z,6.20
2023-01-18T09:20:18.652Z,5.53
2023-01-18T09:22:48.079Z,5.67
2023-01-18T09:25:18.174Z,6.60
2023-01-18T09:27:46.648Z,7.27
2023-01-18T09:30:16.199Z,7.30
2023-01-18T09:32:43.271Z,7.50
2023-01-18T09:35:09.945Z,7.87
2023-01-18T09:37:36.448Z,8.00
2023-01-18T09:40:03.267Z,8.77
2023-01-18T09:42:41.339Z,9.60
2023-01-18T09:45:20.753Z,9.13
2023-01-18T09:47:49.020Z,8.47
2023-01-18T09:50:18.839Z,8.97
2023-01-18T09:53:17.014Z,8.30
2023-01-18T09:56:02.580Z,8.00
2023-01-18T09:58:49.338Z,8.83
2023-01-18T10:01:19.756Z,8.73
2023-01-18T10:04:08.896Z,8.20
2023-01-18T10:06:49.657Z,9.63
2023-01-18T10:09:39.702Z,8.30
2023-01-18T10:12:23.807Z,8.33
2023-01-18T10:15:10.624Z,8.10
2023-01-18T10:17:41.353Z,8.10
2023-01-18T10:20:17.134Z,7.53
2023-01-18T10:23:00.139Z,7.40
2023-01-18T10:25:36.118Z,7.83
2023-01-18T10:28:25.079Z,6.63
2023-01-18T10:30:58.668Z,6.80
2023-01-18T10:33:29.048Z,6.17
2023-01-18T10:36:02.261Z,6.33
2023-01-18T10:38:31.853Z,6.30
2023-01-18T10:41:06.334Z,6.20
2023-01-18T10:43:32.890Z,6.60
2023-01-18T10:45:59.537Z,5.80
2023-01-18T10:48:28.916Z,7.00
2023-01-18T10:51:06.032Z,7.17
2023-01-18T10:53:33.666Z,6.63
2023-01-18T10:56:24.529Z,5.53
2023-01-18T10:58:51.053Z,6.10
2023-01-18T11:01:30.361Z,6.67
2023-01-18T11:04:06.729Z,5.90
2023-01-18T11:06:46.231Z,5.83
2023-01-18T11:09:43.549Z,7.17
2023-01-18T11:12:41.101Z,7.17
2023-01-18T11:15:13.800Z,5.43
2023-01-18T11:17:44.766Z,5.13
2023-01-18T11:20:20.603Z,6.30
2023-01-18T11:23:14.807Z,5.23
2023-01-18T11:26:01.729Z,5.40
2023-01-18T11:28:35.085Z,5.97
2023-01-18T11:31:11.891Z,7.10
2023-01-18T11:33:52.876Z,5.57
2023-01-18T11:36:32.923Z,5.70
2023-01-18T11:39:17.888Z,6.53
2023-01-18T11:41:44.446Z,6.50
2023-01-18T11:44:22.615Z,6.47
2023-01-18T11:46:55.877Z,6.07
2023-01-18T11:50:07.716Z,6.73
2023-01-18T11:52:53.678Z,6.53
2023-01-18T11:55:37.092Z,6.83
2023-01-18T11:58:06.965Z,5.87
2023-01-18T12:00:49.865Z,5.60
2023-01-18T12:03:34.593Z,5.37
2023-01-18T12:06:16.840Z,6.60
2023-01-18T12:08:46.295Z,6.10
2023-01-18T12:11:45.457Z,5.93
2023-01-18T12:14:27.330Z,5.23
2023-01-18T12:17:12.100Z,5.77
2023-01-18T12:19:49.331Z,4.60
2023-01-18T12:22:34.172Z,5.33
2023-01-18T12:25:34.729Z,5.20
2023-01-18T12:28:20.060Z,5.80
2023-01-18T12:31:15.826Z,5.93
2023-01-18T12:34:07.322Z,4.43
2023-01-18T12:36:52.256Z,4.70
2023-01-18T12:39:24.779Z,4.90
2023-01-18T12:42:03.084Z,4.80
2023-01-18T12:44:36.351Z,4.40
2023-01-18T12:47:11.792Z,4.53
2023-01-18T12:49:48.020Z,4.83
2023-01-18T12:52:19.238Z,4.17
2023-01-18T12:54:50.769Z,4.40
2023-01-18T12:57:18.755Z,3.80
2023-01-18T13:00:04.992Z,3.97
2023-01-18T13:02:39.202Z,5.03
2023-01-18T13:05:19.921Z,4.73
2023-01-18T13:07:52.084Z,4.10
2023-01-18T13:10:28.758Z,3.90
2023-01-18T13:12:57.320Z,3.67
2023-01-18T13:15:42.700Z,3.97
2023-01-18T13:18:21.896Z,3.20
2023-01-18T13:20:54.438Z,3.17
2023-01-18T13:24:14.765Z,3.50
2023-01-18T13:26:41.856Z,3.00
2023-01-18T13:29:29.663Z,3.10
2023-01-18T13:31:58.995Z,3.57
2023-01-18T13:34:47.959Z,3.50
2023-01-18T13:37:45.319Z,3.00
2023-01-18T13:40:37.746Z,2.33
2023-01-18T13:43:36.190Z,2.33
2023-01-18T13:46:24.718Z,1.67
2023-01-18T13:48:58.914Z,1.80
2023-01-18T13:51:40.742Z,1.93
2023-01-18T13:54:10.908Z,2.90
2023-01-18T13:56:39.339Z,1.93
2023-01-18T13:59:11.734Z,1.80
2023-01-18T14:01:43.055Z,2.10
2023-01-18T14:04:35.017Z,2.20
2023-01-18T14:07:18.147Z,2.67
2023-01-18T14:09:48.210Z,2.20
2023-01-18T14:12:15.026Z,2.73
2023-01-18T14:14:59.328Z,3.00
2023-01-18T14:17:26.406Z,2.67
2023-01-18T14:19:57.264Z,2.10
2023-01-18T14:22:48.788Z,1.70
2023-01-18T14:25:37.039Z,1.80
2023-01-18T14:28:19.893Z,1.50
2023-01-18T14:30:48.227Z,1.67
2023-01-18T14:33:20.811Z,2.00
2023-01-18T14:35:55.405Z,1.73
2023-01-18T14:38:21.947Z,1.80
2023-01-18T14:40:52.659Z,2.20
2023-01-18T14:43:26.911Z,2.03
2023-01-18T14:46:17.369Z,1.97
2023-01-18T14:48:51.403Z,1.90
2023-01-18T14:51:23.456Z,2.00
2023-01-18T14:53:54.487Z,1.90
2023-01-18T14:56:24.787Z,1.70
2023-01-18T14:58:59.808Z,1.83
2023-01-18T15:01:36.819Z,3.00
2023-01-18T15:04:06.757Z,2.60
2023-01-18T15:06:49.759Z,2.73
2023-01-18T15:09:19.471Z,2.10
2023-01-18T15:11:48.016Z,1.90
2023-01-18T15:14:19.345Z,2.17
2023-01-18T15:16:48.683Z,1.90
2023-01-18T15:19:19.187Z,1.90
2023-01-18T15:21:46.756Z,2.33
2023-01-18T15:24:18.047Z,2.30
2023-01-18T15:26:54.837Z,2.13
2023-01-18T15:29:38.999Z,2.20
2023-01-18T15:32:14.869Z,1.97
2023-01-18T15:34:44.290Z,1.80
2023-01-18T15:37:24.015Z,2.07
2023-01-18T15:39:58.160Z,1.73
2023-01-18T15:42:38.722Z,2.10
2023-01-18T15:45:40.365Z,1.83
2023-01-18T15:48:07.090Z,1.70
2023-01-18T15:50:37.988Z,1.90
2023-01-18T15:53:11.552Z,1.93
2023-01-18T15:55:45.889Z,1.70
2023-01-18T15:58:29.017Z,1.80
2023-01-18T16:01:07.143Z,2.47
2023-01-18T16:03:48.730Z,2.60
2023-01-18T16:06:32.216Z,2.20
2023-01-18T16:09:10.578Z,2.30
2023-01-18T16:11:41.240Z,1.90
2023-01-18T16:14:29.104Z,1.93
2023-01-18T16:17:12.968Z,1.97
2023-01-18T16:19:48.858Z,2.63
2023-01-18T16:22:30.136Z,2.27
2023-01-18T16:25:05.723Z,2.37
2023-01-18T16:27:36.422Z,2.30
2023-01-18T16:30:22.424Z,2.37
2023-01-18T16:32:49.627Z,2.47
2023-01-18T16:35:22.262Z,2.70
2023-01-18T16:37:50.048Z,3.10
2023-01-18T16:40:23.724Z,3.20
2023-01-18T16:42:59.710Z,3.90
2023-01-18T16:45:26.919Z,3.47
2023-01-18T16:47:53.389Z,3.13
2023-01-18T16:50:20.597Z,3.17
2023-01-18T16:52:47.116Z,2.67
2023-01-18T16:55:15.395Z,4.00
2023-01-18T16:57:42.980Z,3.90
2023-01-18T17:00:14.567Z,5.53
2023-01-18T17:02:41.127Z,3.77
2023-01-18T17:05:08.431Z,3.83
2023-01-18T17:07:37.013Z,4.20
2023-01-18T17:10:18.732Z,4.40
2023-01-18T17:12:45.311Z,4.43
2023-01-18T17:15:12.596Z,4.17
2023-01-18T17:17:40.360Z,4.73
2023-01-18T17:20:26.713Z,4.10
2023-01-18T17:22:54.236Z,3.67
2023-01-18T17:25:21.302Z,4.70
2023-01-18T17:27:48.843Z,4.03
2023-01-18T17:30:18.356Z,4.73
2023-01-18T17:32:46.912Z,4.43
2023-01-18T17:35:15.348Z,5.10
2023-01-18T17:37:41.794Z,4.87
2023-01-18T17:40:19.716Z,5.13
2023-01-18T17:42:51.768Z,4.30
2023-01-18T17:45:18.714Z,5.03
2023-01-18T17:47:45.342Z,5.07
2023-01-18T17:50:19.021Z,5.43
2023-01-18T17:52:45.643Z,4.33
2023-01-18T17:55:13.561Z,4.07
2023-01-18T17:57:40.693Z,5.50
2023-01-18T18:00:11.779Z,4.87
2023-01-18T18:02:38.404Z,5.07
2023-01-18T18:05:10.454Z,4.60
2023-01-18T18:07:37.142Z,4.70
2023-01-18T18:10:06.040Z,5.20
2023-01-18T18:12:36.585Z,4.20
2023-01-18T18:15:08.390Z,3.83
2023-01-18T18:17:38.235Z,3.97
2023-01-18T18:20:10.959Z,3.60
2023-01-18T18:22:38.623Z,3.43
2023-01-18T18:25:11.033Z,3.50
2023-01-18T18:27:45.576Z,3.57
2023-01-18T18:30:13.110Z,3.40
2023-01-18T18:32:39.928Z,3.13
2023-01-18T18:35:23.953Z,3.23
2023-01-18T18:37:53.475Z,3.90
2023-01-18T18:40:20.574Z,3.63
2023-01-18T18:43:00.696Z,4.17
2023-01-18T18:45:30.413Z,4.17
2023-01-18T18:48:00.303Z,4.33
2023-01-18T18:50:27.946Z,3.57
2023-01-18T18:52:55.000Z,4.57
2023-01-18T18:55:21.566Z,4.30
2023-01-18T18:57:48.118Z,4.63
2023-01-18T19:00:15.532Z,3.90
2023-01-18T19:02:42.128Z,4.57
2023-01-18T19:05:12.103Z,5.03
2023-01-18T19:07:38.882Z,5.30
2023-01-18T19:10:11.519Z,5.20
2023-01-18T19:12:38.105Z,4.20
2023-01-18T19:15:07.626Z,5.07
2023-01-18T19:17:34.170Z,4.90
2023-01-18T19:20:00.700Z,6.93
2023-01-18T19:22:27.213Z,7.30
2023-01-18T19:24:53.773Z,6.07
2023-01-18T19:27:21.812Z,7.17
2023-01-18T19:29:48.305Z,6.40
2023-01-18T19:32:15.427Z,5.77
2023-01-18T19:34:41.936Z,5.47
2023-01-18T19:37:08.988Z,4.37
2023-01-18T19:39:35.563Z,4.67
2023-01-18T19:42:02.626Z,5.83
2023-01-18T19:44:29.278Z,5.27
2023-01-18T19:46:56.947Z,4.73
2023-01-18T19:49:26.199Z,5.30
2023-01-18T19:51:54.683Z,5.33
2023-01-18T19:54:21.634Z,4.90
2023-01-18T19:56:48.245Z,5.23
2023-01-18T19:59:15.155Z,5.37
2023-01-18T20:01:42.111Z,4.87
2023-01-18T20:04:09.850Z,5.20
2023-01-18T20:06:41.290Z,5.57
2023-01-18T20:09:19.388Z,6.17
2023-01-18T20:11:48.209Z,6.00
2023-01-18T20:14:14.933Z,6.70
2023-01-18T20:16:43.283Z,7.47
2023-01-18T20:19:20.300Z,5.20
2023-01-18T20:21:46.943Z,4.73
2023-01-18T20:24:13.463Z,5.17
2023-01-18T20:26:41.676Z,4.33
2023-01-18T20:29:11.099Z,4.10
2023-01-18T20:31:38.977Z,4.03
2023-01-18T20:34:10.246Z,5.30
2023-01-18T20:36:41.117Z,4.43
2023-01-18T20:39:10.344Z,4.43
2023-01-18T20:41:40.755Z,4.27
2023-01-18T20:44:10.470Z,3.00
2023-01-18T20:46:45.633Z,4.37
2023-01-18T20:49:13.258Z,5.07
2023-01-18T20:51:41.139Z,4.97
2023-01-18T20:54:08.966Z,5.10
2023-01-18T20:56:38.416Z,5.07
2023-01-18T20:59:04.924Z,4.53
2023-01-18T21:01:32.740Z,5.27
2023-01-18T21:04:01.518Z,4.50
2023-01-18T21:06:28.544Z,4.93
2023-01-18T21:08:56.778Z,4.53
2023-01-18T21:11:25.373Z,4.77
2023-01-18T21:13:53.657Z,4.73
2023-01-18T21:16:20.631Z,5.13
2023-01-18T21:18:47.220Z,4.57
2023-01-18T21:21:13.679Z,5.70
2023-01-18T21:23:40.289Z,6.27
2023-01-18T21:26:12.607Z,7.33
2023-01-18T21:28:42.291Z,8.87
2023-01-18T21:31:11.938Z,7.63
2023-01-18T21:33:42.709Z,6.40
2023-01-18T21:36:15.494Z,5.53
2023-01-18T21:38:42.037Z,6.80
2023-01-18T21:41:30.493Z,6.10
2023-01-18T21:44:15.615Z,6.30
2023-01-18T21:46:46.493Z,6.57
2023-01-18T21:49:45.028Z,7.20
2023-01-18T21:52:37.776Z,11.13
2023-01-18T21:55:04.542Z,8.67
2023-01-18T21:57:31.025Z,7.27
2023-01-18T21:59:57.523Z,7.33
2023-01-18T22:02:24.095Z,7.30
2023-01-18T22:04:57.850Z,6.67
2023-01-18T22:07:24.609Z,5.80
2023-01-18T22:10:03.592Z,5.87
2023-01-18T22:12:32.627Z,5.50
2023-01-18T22:15:01.446Z,5.40
2023-01-18T22:17:28.033Z,5.13
2023-01-18T22:19:54.586Z,6.50
2023-01-18T22:22:21.087Z,5.67
2023-01-18T22:24:47.555Z,5.53
2023-01-18T22:27:14.009Z,7.03
2023-01-18T22:29:43.068Z,5.43
2023-01-18T22:32:09.841Z,5.47
2023-01-18T22:34:36.750Z,6.00
2023-01-18T22:37:03.624Z,5.87
2023-01-18T22:39:30.521Z,5.77
2023-01-18T22:41:57.949Z,5.57
2023-01-18T22:44:25.228Z,5.60
2023-01-18T22:46:52.264Z,6.37
2023-01-18T22:49:19.243Z,6.27
2023-01-18T22:51:45.901Z,6.50
2023-01-18T22:54:14.629Z,6.47
2023-01-18T22:56:41.314Z,6.07
2023-01-18T22:59:07.899Z,7.30
2023-01-18T23:01:34.439Z,6.93
2023-01-18T23:04:03.270Z,5.30
2023-01-18T23:06:41.875Z,6.80
2023-01-18T23:09:10.163Z,5.47
2023-01-18T23:11:37.242Z,6.07
2023-01-18T23:14:23.075Z,5.63
2023-01-18T23:17:07.873Z,5.23
2023-01-18T23:19:34.488Z,6.00
2023-01-18T23:22:06.902Z,6.17
2023-01-18T23:24:35.493Z,5.33
2023-01-18T23:27:02.761Z,6.37
2023-01-18T23:29:29.295Z,8.07
2023-01-18T23:31:57.634Z,6.07
2023-01-18T23:34:25.060Z,5.60
2023-01-18T23:36:52.064Z,5.13
2023-01-18T23:39:37.061Z,5.80
2023-01-18T23:42:22.261Z,4.93
2023-01-18T23:45:07.086Z,5.03
2023-01-18T23:47:51.819Z,5.27
2023-01-18T23:50:37.255Z,5.93
2023-01-18T23:53:22.017Z,5.30
2023-01-18T23:55:52.788Z,5.53
2023-01-18T23:58:19.336Z,5.27
